Rocky Mount, Missouri
Current Conditions -  °F | °C
As of 3:35 AM on Thursday 27 Nov 2014 (Local Time) from KAIZ Reporting Station
Overcast Overcast  
Wind Chill: 27°   Ceiling: 1100
Heat Index: 32°   Visibility: 7mi
Dew Point: 27°   Wind: 5mph
Humidity: 80%   Direction: 320°NW
Pressure: 30.4"   Gusts: NA
Location:  38.27°N, 92.72°W
Report Text: KAIZ 270935Z AUTO 32004KT 7SM OVC011 00/M03 A3040 RMK AO1
Loading
Personal Weather Stations






























Interactive Weather Map New forecast layout! Learn more

10-Day Weather Forecast

Advertisements
Track Severe Weather on mobile